Terminal Aerodrome Forecast
Issued by NWS

Current Version | Previous Version | Graphics & Text | Print | Product List | Glossary On
Versions: 1 2 3 4 5 6 7 8 9 10 11 12 13 14 15 16 17
000
FTUS41 KILN 152330
TAFLCK
TAF
KLCK 152330Z 1600/1624 22011KT 4SM BR VCSH OVC006
     FM160500 26014KT P6SM BKN040
     FM160900 27013KT P6SM BKN015
     FM161800 29012KT P6SM BKN025=

USA.gov is the U.S. government's official web portal to all federal, state and local government web resources and services.